Time;durP1;ratioP1;P1;durP2;ratioP2;P2;SDS_P1;SDS_P2;PMS_P1;PMS_P2;Temp;Humidity;BMP_temperature;BMP_pressure;BME280_temperature;BME280_humidity;BME280_pressure;Samples;Min_cycle;Max_cycle;Signal;HPM_P1;HPM_P2
2023/03/27 00:00:28;;;;;;;1.40;1.00;;;;;;;;;;5073420;28;20459;-73
2023/03/27 00:02:56;;;;;;;2.33;0.93;;;;;;;;;;5073016;28;20444;-73
2023/03/27 00:05:24;;;;;;;2.37;1.13;;;;;;;;;;5072520;28;20825;-73
2023/03/27 00:07:54;;;;;;;1.50;1.00;;;;;;;;;;5072986;28;20525;-73
2023/03/27 00:10:21;;;;;;;2.90;0.90;;;;;;;;;;5072955;28;20459;-73
2023/03/27 00:12:50;;;;;;;2.07;1.17;;;;;;;;;;5073019;28;20451;-73
2023/03/27 00:15:17;;;;;;;3.20;1.10;;;;;;;;;;5072924;28;20787;-73
2023/03/27 00:17:46;;;;;;;1.20;0.80;;;;;;;;;;5072787;28;20483;-73
2023/03/27 00:20:13;;;;;;;1.30;0.87;;;;;;;;;;5072759;28;20463;-73
2023/03/27 00:22:41;;;;;;;5.40;1.20;;;;;;;;;;5072899;28;20486;-73
2023/03/27 00:25:08;;;;;;;1.50;0.87;;;;;;;;;;5072928;28;20490;-74
2023/03/27 00:27:36;;;;;;;1.57;0.97;;;;;;;;;;5072833;28;20452;-74
2023/03/27 00:30:05;;;;;;;1.50;0.93;;;;;;;;;;5074300;28;20822;-74
2023/03/27 00:32:33;;;;;;;5.13;1.10;;;;;;;;;;5076448;28;20479;-73
2023/03/27 00:35:00;;;;;;;1.83;1.20;;;;;;;;;;5076614;28;20452;-74
2023/03/27 00:37:27;;;;;;;1.40;0.80;;;;;;;;;;5076673;28;20858;-73
2023/03/27 00:39:54;;;;;;;2.47;1.00;;;;;;;;;;5076659;28;20452;-73
2023/03/27 00:42:22;;;;;;;1.40;0.90;;;;;;;;;;5076430;28;20475;-73
2023/03/27 00:44:50;;;;;;;1.87;0.90;;;;;;;;;;5076388;28;20455;-74
2023/03/27 00:47:21;;;;;;;2.97;1.10;;;;;;;;;;5076628;28;20447;-73
2023/03/27 00:49:50;;;;;;;2.20;0.87;;;;;;;;;;5076528;28;20447;-73
2023/03/27 00:52:20;;;;;;;3.27;1.00;;;;;;;;;;5076516;28;20463;-74
2023/03/27 00:54:48;;;;;;;1.30;0.90;;;;;;;;;;5076257;28;20452;-74
2023/03/27 00:57:17;;;;;;;1.30;0.90;;;;;;;;;;5075966;28;20487;-74
2023/03/27 00:59:45;;;;;;;1.30;0.90;;;;;;;;;;5076379;28;20844;-74
2023/03/27 01:02:13;;;;;;;1.50;1.00;;;;;;;;;;5076264;28;20937;-73
2023/03/27 01:04:42;;;;;;;1.43;0.90;;;;;;;;;;5076077;28;20451;-73
2023/03/27 01:07:10;;;;;;;1.30;0.90;;;;;;;;;;5075943;28;20957;-73
2023/03/27 01:09:38;;;;;;;2.00;1.00;;;;;;;;;;5076076;28;20533;-73
2023/03/27 01:12:09;;;;;;;2.20;1.20;;;;;;;;;;5075913;28;21018;-73
2023/03/27 01:14:41;;;;;;;2.07;1.00;;;;;;;;;;5075822;28;20529;-73
2023/03/27 01:17:18;;;;;;;2.23;1.10;;;;;;;;;;5075909;28;20455;-73
2023/03/27 01:20:09;;;;;;;1.57;1.10;;;;;;;;;;5076076;28;20490;-73
2023/03/27 01:22:52;;;;;;;1.50;1.13;;;;;;;;;;5069931;28;20920;-73
2023/03/27 01:25:33;;;;;;;2.20;1.20;;;;;;;;;;5075497;28;20504;-73
2023/03/27 01:28:15;;;;;;;1.30;0.83;;;;;;;;;;5076011;28;20451;-74
2023/03/27 01:30:48;;;;;;;4.23;0.90;;;;;;;;;;5074699;28;20519;-73
2023/03/27 01:33:25;;;;;;;3.27;0.97;;;;;;;;;;5075605;28;20505;-74
2023/03/27 01:35:56;;;;;;;1.40;0.90;;;;;;;;;;5075684;28;20451;-74
2023/03/27 01:38:34;;;;;;;4.83;0.93;;;;;;;;;;5075926;28;20511;-74
2023/03/27 01:41:06;;;;;;;1.77;1.10;;;;;;;;;;5074382;28;20478;-74
2023/03/27 01:43:35;;;;;;;1.83;1.30;;;;;;;;;;5075537;28;20845;-74
2023/03/27 01:46:07;;;;;;;1.40;1.03;;;;;;;;;;5075469;28;20459;-73
2023/03/27 01:48:37;;;;;;;1.80;1.57;;;;;;;;;;5075859;28;20888;-73
2023/03/27 01:51:08;;;;;;;1.33;0.90;;;;;;;;;;5075388;28;20489;-74
2023/03/27 01:53:38;;;;;;;1.90;1.20;;;;;;;;;;5075260;28;20505;-74
2023/03/27 01:56:08;;;;;;;1.90;1.10;;;;;;;;;;5075344;28;20460;-74
2023/03/27 01:58:39;;;;;;;1.50;1.00;;;;;;;;;;5075192;28;20486;-74
2023/03/27 02:01:06;;;;;;;1.90;1.30;;;;;;;;;;5075323;28;20475;-74
2023/03/27 02:03:36;;;;;;;3.07;1.00;;;;;;;;;;5074935;28;20458;-74
2023/03/27 02:06:06;;;;;;;3.63;1.30;;;;;;;;;;5074784;28;21067;-74
2023/03/27 02:08:36;;;;;;;1.40;0.90;;;;;;;;;;5074779;28;20455;-74
2023/03/27 02:11:04;;;;;;;1.40;1.00;;;;;;;;;;5074806;28;20483;-74
2023/03/27 02:13:35;;;;;;;3.20;1.20;;;;;;;;;;5075137;28;20859;-74
2023/03/27 02:16:03;;;;;;;1.50;1.10;;;;;;;;;;5074935;28;20458;-74
2023/03/27 02:18:34;;;;;;;1.97;1.13;;;;;;;;;;5074854;28;20498;-74
2023/03/27 02:21:02;;;;;;;1.97;1.03;;;;;;;;;;5074698;28;20998;-74
2023/03/27 02:23:30;;;;;;;1.30;1.00;;;;;;;;;;5074540;28;20964;-75
2023/03/27 02:25:57;;;;;;;3.10;1.20;;;;;;;;;;5074524;28;20456;-74
2023/03/27 02:28:48;;;;;;;2.07;1.10;;;;;;;;;;5074646;28;20463;-74
2023/03/27 02:31:25;;;;;;;2.60;1.13;;;;;;;;;;5074194;28;20495;-74
2023/03/27 02:33:59;;;;;;;3.10;1.43;;;;;;;;;;5074489;28;20826;-74
2023/03/27 02:36:32;;;;;;;3.43;1.33;;;;;;;;;;5074392;28;20459;-74
2023/03/27 02:39:02;;;;;;;4.13;1.50;;;;;;;;;;5074409;28;21004;-74
2023/03/27 02:41:31;;;;;;;1.30;0.80;;;;;;;;;;5074695;28;20479;-74
2023/03/27 02:44:03;;;;;;;2.50;1.03;;;;;;;;;;5074482;28;20455;-74
2023/03/27 02:46:33;;;;;;;1.90;1.40;;;;;;;;;;5074360;28;20428;-74
2023/03/27 02:49:03;;;;;;;1.70;1.13;;;;;;;;;;5074447;28;20940;-74
2023/03/27 02:51:32;;;;;;;3.30;1.70;;;;;;;;;;5074146;28;20525;-74
2023/03/27 02:54:01;;;;;;;1.57;1.20;;;;;;;;;;5073753;28;20455;-74
2023/03/27 02:56:30;;;;;;;3.50;3.30;;;;;;;;;;5074566;28;20460;-75
2023/03/27 02:59:02;;;;;;;3.07;1.50;;;;;;;;;;5074936;28;20949;-75
2023/03/27 03:01:31;;;;;;;1.50;1.30;;;;;;;;;;5074604;28;20567;-75
2023/03/27 03:03:59;;;;;;;3.80;2.00;;;;;;;;;;5074111;28;20456;-74
2023/03/27 03:06:29;;;;;;;2.70;1.30;;;;;;;;;;5073838;28;20892;-75
2023/03/27 03:09:01;;;;;;;3.20;1.40;;;;;;;;;;5073825;28;20451;-75
2023/03/27 03:11:28;;;;;;;3.10;1.50;;;;;;;;;;5073763;28;20478;-74
2023/03/27 03:13:56;;;;;;;5.90;1.40;;;;;;;;;;5073449;28;20461;-75
2023/03/27 03:16:23;;;;;;;1.80;1.43;;;;;;;;;;5073879;28;20452;-74
2023/03/27 03:18:51;;;;;;;1.90;1.40;;;;;;;;;;5073574;28;20497;-74
2023/03/27 03:21:19;;;;;;;1.90;1.50;;;;;;;;;;5073837;28;20548;-74
2023/03/27 03:23:46;;;;;;;4.50;2.07;;;;;;;;;;5074177;28;20982;-74
2023/03/27 03:26:14;;;;;;;4.10;1.77;;;;;;;;;;5074468;28;20447;-74
2023/03/27 03:28:42;;;;;;;3.67;1.57;;;;;;;;;;5074103;28;20452;-74
2023/03/27 03:31:09;;;;;;;5.50;2.37;;;;;;;;;;5074000;28;20842;-75
2023/03/27 03:33:39;;;;;;;6.00;3.03;;;;;;;;;;5073612;28;20521;-74
2023/03/27 03:36:09;;;;;;;9.73;1.87;;;;;;;;;;5074117;28;20456;-74
2023/03/27 03:38:36;;;;;;;1.73;1.40;;;;;;;;;;5074135;28;20523;-74
2023/03/27 03:41:04;;;;;;;3.23;1.80;;;;;;;;;;5073624;28;20471;-74
2023/03/27 03:43:31;;;;;;;3.13;1.30;;;;;;;;;;5073327;28;20578;-74
2023/03/27 03:45:59;;;;;;;2.00;1.70;;;;;;;;;;5073101;28;20462;-73
2023/03/27 03:48:26;;;;;;;3.27;1.70;;;;;;;;;;5073233;28;20460;-74
2023/03/27 03:50:54;;;;;;;2.10;1.60;;;;;;;;;;5073362;28;20482;-73
2023/03/27 03:53:22;;;;;;;2.97;1.70;;;;;;;;;;5073384;28;20981;-73
2023/03/27 03:55:52;;;;;;;5.90;3.73;;;;;;;;;;5073597;28;20447;-73
2023/03/27 03:58:19;;;;;;;2.10;1.60;;;;;;;;;;5072960;28;20484;-73
2023/03/27 04:00:46;;;;;;;1.90;1.27;;;;;;;;;;5073273;28;20475;-73
2023/03/27 04:03:14;;;;;;;3.90;1.50;;;;;;;;;;5073435;28;20817;-73
2023/03/27 04:05:41;;;;;;;2.67;1.20;;;;;;;;;;5072540;28;20967;-73
2023/03/27 04:08:08;;;;;;;2.57;1.40;;;;;;;;;;5073182;28;20949;-73
2023/03/27 04:10:38;;;;;;;1.90;1.50;;;;;;;;;;5073166;28;20881;-73
2023/03/27 04:13:05;;;;;;;2.13;1.43;;;;;;;;;;5072973;28;20509;-73
2023/03/27 04:15:33;;;;;;;2.55;1.48;;;;;;;;;;5072358;28;20451;-73
2023/03/27 04:18:00;;;;;;;2.03;1.57;;;;;;;;;;5072840;28;20204;-73
2023/03/27 04:20:27;;;;;;;2.17;1.83;;;;;;;;;;5072876;28;20818;-74
2023/03/27 04:22:54;;;;;;;1.70;1.50;;;;;;;;;;5073001;28;20444;-74
2023/03/27 04:25:23;;;;;;;2.63;1.40;;;;;;;;;;5073236;28;20961;-73
2023/03/27 04:27:52;;;;;;;5.70;1.90;;;;;;;;;;5072844;28;20817;-74
2023/03/27 04:30:22;;;;;;;2.53;2.10;;;;;;;;;;5072530;28;20456;-74
2023/03/27 04:32:49;;;;;;;2.93;2.10;;;;;;;;;;5072924;28;20895;-74
2023/03/27 04:35:17;;;;;;;5.20;3.07;;;;;;;;;;5072814;28;20868;-74
2023/03/27 04:37:44;;;;;;;4.03;2.80;;;;;;;;;;5072790;28;20467;-74
2023/03/27 04:40:13;;;;;;;4.30;2.50;;;;;;;;;;5073142;28;20491;-74
2023/03/27 04:42:41;;;;;;;2.23;2.03;;;;;;;;;;5072640;28;20475;-74
2023/03/27 04:45:12;;;;;;;3.20;2.20;;;;;;;;;;5072467;28;20452;-74
2023/03/27 04:47:39;;;;;;;1.93;1.70;;;;;;;;;;5072945;28;20490;-74
2023/03/27 04:50:07;;;;;;;2.53;2.20;;;;;;;;;;5072713;28;20807;-73
2023/03/27 04:52:34;;;;;;;2.00;1.80;;;;;;;;;;5072704;28;20474;-74
2023/03/27 04:55:01;;;;;;;9.83;2.90;;;;;;;;;;5072049;28;21009;-73
2023/03/27 04:57:30;;;;;;;5.17;3.23;;;;;;;;;;5072199;28;20850;-73
2023/03/27 04:59:57;;;;;;;3.20;2.30;;;;;;;;;;5072417;28;20995;-74
2023/03/27 05:02:26;;;;;;;2.73;2.10;;;;;;;;;;5072410;28;20560;-73
2023/03/27 05:04:57;;;;;;;3.07;2.47;;;;;;;;;;5072292;28;20451;-73
2023/03/27 05:07:24;;;;;;;3.20;2.50;;;;;;;;;;5072300;28;20822;-74
2023/03/27 05:09:52;;;;;;;2.80;2.43;;;;;;;;;;5072708;28;20432;-74
2023/03/27 05:12:20;;;;;;;3.13;2.83;;;;;;;;;;5072652;28;20497;-74
2023/03/27 05:14:48;;;;;;;2.43;2.03;;;;;;;;;;5072734;28;20923;-74
2023/03/27 05:17:15;;;;;;;3.10;2.57;;;;;;;;;;5075775;28;20486;-74
2023/03/27 05:19:44;;;;;;;3.17;2.40;;;;;;;;;;5075930;28;20471;-74
2023/03/27 05:22:11;;;;;;;3.60;2.90;;;;;;;;;;5075770;28;20472;-74
2023/03/27 05:24:38;;;;;;;2.60;1.90;;;;;;;;;;5076206;28;20825;-74
2023/03/27 05:27:06;;;;;;;2.30;2.10;;;;;;;;;;5075688;28;20452;-74
2023/03/27 05:29:34;;;;;;;4.03;2.37;;;;;;;;;;5076124;28;20790;-74
2023/03/27 05:32:01;;;;;;;3.60;2.40;;;;;;;;;;5075766;28;20866;-74
2023/03/27 05:34:28;;;;;;;2.27;1.83;;;;;;;;;;5075650;28;20450;-74
2023/03/27 05:36:57;;;;;;;2.30;1.77;;;;;;;;;;5075993;28;20486;-74
2023/03/27 05:39:26;;;;;;;2.97;2.43;;;;;;;;;;5076065;28;21019;-74
2023/03/27 05:41:53;;;;;;;2.00;1.80;;;;;;;;;;5075815;28;20468;-74
2023/03/27 05:44:20;;;;;;;5.50;2.33;;;;;;;;;;5075392;28;20505;-74
2023/03/27 05:46:47;;;;;;;2.53;2.33;;;;;;;;;;5075468;28;20455;-74
2023/03/27 05:49:15;;;;;;;2.13;1.80;;;;;;;;;;5073646;28;20459;-74
2023/03/27 05:51:43;;;;;;;2.67;2.17;;;;;;;;;;5074448;28;20472;-74
2023/03/27 05:54:11;;;;;;;3.77;2.73;;;;;;;;;;5074172;28;20459;-74
2023/03/27 05:56:39;;;;;;;5.03;2.67;;;;;;;;;;5074584;28;20988;-74
2023/03/27 05:59:06;;;;;;;2.17;1.90;;;;;;;;;;5074185;28;20570;-74
2023/03/27 06:01:34;;;;;;;3.50;2.63;;;;;;;;;;5073963;28;20519;-74
2023/03/27 06:04:03;;;;;;;2.67;2.40;;;;;;;;;;5073942;28;20555;-74
2023/03/27 06:06:31;;;;;;;2.93;2.20;;;;;;;;;;5074102;28;20534;-74
2023/03/27 06:08:59;;;;;;;2.40;1.90;;;;;;;;;;5074407;28;20783;-74
2023/03/27 06:11:28;;;;;;;3.90;2.80;;;;;;;;;;5074104;28;20491;-75
2023/03/27 06:13:57;;;;;;;4.10;2.40;;;;;;;;;;5073978;28;20529;-74
2023/03/27 06:16:24;;;;;;;2.63;2.10;;;;;;;;;;5074476;28;20467;-74
2023/03/27 06:18:52;;;;;;;4.40;2.07;;;;;;;;;;5074040;28;20502;-74
2023/03/27 06:21:19;;;;;;;2.00;1.80;;;;;;;;;;5074045;28;20471;-74
2023/03/27 06:23:47;;;;;;;2.43;1.70;;;;;;;;;;5073879;28;20553;-74
2023/03/27 06:26:15;;;;;;;1.70;1.60;;;;;;;;;;5073890;28;20506;-74
2023/03/27 06:28:44;;;;;;;1.83;1.63;;;;;;;;;;5073417;28;20903;-74
2023/03/27 06:31:13;;;;;;;1.90;1.53;;;;;;;;;;5073649;28;20853;-74
2023/03/27 06:33:40;;;;;;;4.60;2.03;;;;;;;;;;5074483;28;20456;-74
2023/03/27 06:36:08;;;;;;;2.10;1.50;;;;;;;;;;5073952;28;20458;-74
2023/03/27 06:38:36;;;;;;;15.20;6.87;;;;;;;;;;5074474;28;20456;-74
2023/03/27 06:41:04;;;;;;;2.10;1.53;;;;;;;;;;5074326;28;21054;-74
2023/03/27 06:43:32;;;;;;;1.50;1.20;;;;;;;;;;5074396;28;20538;-74
2023/03/27 06:46:01;;;;;;;1.50;1.20;;;;;;;;;;5074293;28;20491;-74
2023/03/27 06:48:29;;;;;;;1.57;1.20;;;;;;;;;;5074491;28;20452;-74
2023/03/27 06:50:56;;;;;;;1.50;1.27;;;;;;;;;;5074061;28;20498;-74
2023/03/27 06:53:23;;;;;;;1.50;1.03;;;;;;;;;;5074077;28;20458;-75
2023/03/27 06:55:51;;;;;;;2.00;1.47;;;;;;;;;;5074186;28;20452;-74
2023/03/27 06:58:18;;;;;;;1.47;1.37;;;;;;;;;;5074320;28;20455;-74
2023/03/27 07:00:46;;;;;;;3.10;1.90;;;;;;;;;;5074044;28;20502;-74
2023/03/27 07:03:14;;;;;;;2.40;1.50;;;;;;;;;;5074529;28;20811;-74
2023/03/27 07:05:42;;;;;;;1.40;1.10;;;;;;;;;;5073729;28;20459;-74
2023/03/27 07:08:10;;;;;;;1.93;1.47;;;;;;;;;;5073926;28;20446;-74
2023/03/27 07:10:37;;;;;;;1.67;1.40;;;;;;;;;;5073695;28;20472;-74
2023/03/27 07:13:05;;;;;;;2.30;1.90;;;;;;;;;;5073662;28;20448;-74
2023/03/27 07:15:32;;;;;;;2.67;1.40;;;;;;;;;;5073795;28;20452;-74
2023/03/27 07:18:00;;;;;;;2.60;1.53;;;;;;;;;;5073793;28;20440;-74
2023/03/27 07:20:29;;;;;;;2.20;1.50;;;;;;;;;;5073498;28;20499;-73
2023/03/27 07:22:57;;;;;;;3.77;2.03;;;;;;;;;;5073578;28;20432;-73
2023/03/27 07:25:24;;;;;;;2.47;1.60;;;;;;;;;;5073416;28;20455;-74
2023/03/27 07:27:51;;;;;;;1.63;1.50;;;;;;;;;;5073730;28;20530;-75
2023/03/27 07:30:19;;;;;;;2.13;1.37;;;;;;;;;;5073638;28;20459;-74
2023/03/27 07:32:46;;;;;;;2.27;1.20;;;;;;;;;;5074133;28;20432;-74
2023/03/27 07:35:13;;;;;;;1.80;1.07;;;;;;;;;;5073209;28;20452;-75
2023/03/27 07:37:43;;;;;;;1.80;1.30;;;;;;;;;;5073579;28;20452;-75
2023/03/27 07:40:12;;;;;;;2.03;1.50;;;;;;;;;;5072830;28;20476;-75
2023/03/27 07:42:43;;;;;;;3.90;2.03;;;;;;;;;;5073284;28;20563;-74
2023/03/27 07:45:11;;;;;;;2.00;1.60;;;;;;;;;;5073085;28;20470;-75
2023/03/27 07:47:39;;;;;;;2.67;1.40;;;;;;;;;;5073360;28;20843;-75
2023/03/27 07:50:08;;;;;;;2.40;1.47;;;;;;;;;;5073512;28;20822;-75
2023/03/27 07:52:36;;;;;;;6.83;1.30;;;;;;;;;;5073501;28;20927;-74
2023/03/27 07:55:05;;;;;;;1.47;1.00;;;;;;;;;;5073232;28;20451;-74
2023/03/27 07:57:33;;;;;;;1.93;1.40;;;;;;;;;;5073548;28;21057;-75
2023/03/27 08:00:00;;;;;;;74.50;25.17;;;;;;;;;;5073187;28;20488;-75
2023/03/27 08:02:30;;;;;;;3.23;1.97;;;;;;;;;;5072917;28;20485;-75
2023/03/27 08:04:57;;;;;;;4.07;3.10;;;;;;;;;;5073397;28;20459;-75
2023/03/27 08:07:25;;;;;;;2.37;1.70;;;;;;;;;;5073425;28;20451;-73
2023/03/27 08:09:56;;;;;;;4.20;2.43;;;;;;;;;;5073382;28;20448;-74
2023/03/27 08:12:24;;;;;;;4.70;4.20;;;;;;;;;;5072921;28;21058;-73
2023/03/27 08:14:53;;;;;;;3.73;2.10;;;;;;;;;;5072691;28;20492;-73
2023/03/27 08:17:20;;;;;;;2.73;2.50;;;;;;;;;;5073036;28;20460;-73
2023/03/27 08:19:47;;;;;;;2.63;2.00;;;;;;;;;;5072932;28;20471;-73
2023/03/27 08:22:15;;;;;;;5.43;4.07;;;;;;;;;;5072900;28;20547;-73
2023/03/27 08:24:42;;;;;;;6.30;2.97;;;;;;;;;;5072821;28;20501;-73
2023/03/27 08:27:10;;;;;;;5.00;3.30;;;;;;;;;;5073189;28;20475;-75
2023/03/27 08:29:38;;;;;;;12.70;7.40;;;;;;;;;;5074420;28;20451;-74
2023/03/27 08:32:06;;;;;;;13.83;5.90;;;;;;;;;;5074751;28;20476;-75
2023/03/27 08:34:33;;;;;;;8.43;5.63;;;;;;;;;;5073440;28;20468;-74
2023/03/27 08:37:00;;;;;;;17.83;9.10;;;;;;;;;;5073075;28;20536;-74
2023/03/27 08:39:29;;;;;;;5.90;3.67;;;;;;;;;;5072933;28;20861;-74
2023/03/27 08:41:57;;;;;;;10.23;4.30;;;;;;;;;;5072656;28;20490;-74
2023/03/27 08:44:26;;;;;;;7.10;4.53;;;;;;;;;;5072749;28;21042;-74
2023/03/27 08:46:56;;;;;;;9.30;5.03;;;;;;;;;;5072784;28;20456;-74
2023/03/27 08:49:27;;;;;;;6.80;3.83;;;;;;;;;;5072692;28;20451;-73
2023/03/27 08:51:56;;;;;;;7.30;4.40;;;;;;;;;;5075578;28;20525;-73
2023/03/27 08:54:25;;;;;;;9.63;5.30;;;;;;;;;;5076280;28;20538;-74
2023/03/27 08:56:52;;;;;;;15.37;7.73;;;;;;;;;;5076440;28;20455;-73
2023/03/27 08:59:20;;;;;;;2.60;2.40;;;;;;;;;;5076522;28;20546;-74
2023/03/27 09:01:51;;;;;;;6.77;4.33;;;;;;;;;;5076172;28;20517;-73
2023/03/27 09:04:24;;;;;;;7.77;3.77;;;;;;;;;;5075996;28;20463;-73
2023/03/27 09:06:57;;;;;;;3.67;3.07;;;;;;;;;;5075962;28;20495;-73
2023/03/27 09:09:32;;;;;;;5.47;3.00;;;;;;;;;;5076240;28;20455;-74
2023/03/27 09:12:03;;;;;;;4.10;2.40;;;;;;;;;;5076287;28;20983;-74
2023/03/27 09:14:32;;;;;;;8.27;3.70;;;;;;;;;;5076210;28;20474;-74
2023/03/27 09:17:01;;;;;;;3.30;2.57;;;;;;;;;;5076262;28;20452;-74
2023/03/27 09:19:34;;;;;;;5.83;3.17;;;;;;;;;;5075761;28;20462;-74
2023/03/27 09:22:04;;;;;;;5.17;3.33;;;;;;;;;;5075835;28;20499;-74
2023/03/27 09:24:33;;;;;;;7.20;3.83;;;;;;;;;;5075725;28;20542;-74
2023/03/27 09:27:01;;;;;;;3.20;2.60;;;;;;;;;;5076082;28;20455;-73
2023/03/27 09:29:30;;;;;;;3.37;2.73;;;;;;;;;;5075654;28;20460;-74
2023/03/27 09:31:59;;;;;;;3.93;3.40;;;;;;;;;;5075473;28;20475;-72
2023/03/27 09:34:28;;;;;;;4.90;3.40;;;;;;;;;;5075545;28;20458;-71
2023/03/27 09:36:59;;;;;;;5.60;3.60;;;;;;;;;;5075852;28;20517;-72
2023/03/27 09:39:28;;;;;;;5.00;2.83;;;;;;;;;;5075634;28;20436;-72
2023/03/27 09:41:59;;;;;;;5.37;3.73;;;;;;;;;;5075670;28;20569;-73
2023/03/27 09:44:27;;;;;;;4.80;4.00;;;;;;;;;;5075900;28;20460;-74
2023/03/27 09:46:57;;;;;;;8.10;4.07;;;;;;;;;;5076140;28;20459;-73
2023/03/27 09:49:26;;;;;;;6.03;3.37;;;;;;;;;;5075696;28;20945;-74
2023/03/27 09:51:55;;;;;;;37.90;20.20;;;;;;;;;;5075223;28;20507;-74
2023/03/27 09:54:27;;;;;;;7.60;3.70;;;;;;;;;;5075410;28;20470;-74
2023/03/27 09:56:58;;;;;;;20.83;11.13;;;;;;;;;;5075235;28;20466;-75
2023/03/27 09:59:27;;;;;;;3.63;3.23;;;;;;;;;;5075224;28;20451;-74
2023/03/27 10:01:56;;;;;;;7.03;4.57;;;;;;;;;;5074393;28;20498;-75
2023/03/27 10:04:24;;;;;;;3.70;3.00;;;;;;;;;;5075279;28;20452;-74
2023/03/27 10:06:58;;;;;;;13.20;7.60;;;;;;;;;;5075270;28;20451;-74
2023/03/27 10:09:29;;;;;;;4.87;3.07;;;;;;;;;;5075242;28;20888;-75
2023/03/27 10:12:04;;;;;;;3.73;3.20;;;;;;;;;;5075380;28;20558;-74
2023/03/27 10:14:33;;;;;;;7.73;4.47;;;;;;;;;;5075001;28;20455;-74
2023/03/27 10:17:01;;;;;;;3.57;2.63;;;;;;;;;;5075075;28;20492;-74
2023/03/27 10:19:30;;;;;;;15.73;7.70;;;;;;;;;;5075127;28;20452;-75
2023/03/27 10:21:57;;;;;;;5.37;2.20;;;;;;;;;;5074676;28;20491;-74
2023/03/27 10:24:31;;;;;;;3.20;2.90;;;;;;;;;;5074789;28;20451;-74
2023/03/27 10:27:00;;;;;;;4.70;3.07;;;;;;;;;;5075087;28;20818;-74
2023/03/27 10:29:28;;;;;;;4.53;3.07;;;;;;;;;;5075228;28;20515;-75
2023/03/27 10:31:56;;;;;;;4.93;3.33;;;;;;;;;;5074495;28;20487;-74
2023/03/27 10:34:31;;;;;;;13.23;6.80;;;;;;;;;;5074603;28;20471;-75
2023/03/27 10:37:03;;;;;;;9.87;5.77;;;;;;;;;;5074536;28;20462;-73
2023/03/27 10:39:34;;;;;;;4.40;3.27;;;;;;;;;;5074331;28;21028;-72
2023/03/27 10:42:03;;;;;;;5.10;2.60;;;;;;;;;;5074289;28;20582;-73
2023/03/27 10:44:30;;;;;;;3.00;2.50;;;;;;;;;;5074270;28;20957;-73
2023/03/27 10:46:58;;;;;;;9.70;5.03;;;;;;;;;;5074372;28;20452;-73
2023/03/27 10:49:29;;;;;;;12.63;7.17;;;;;;;;;;5074070;28;20550;-73
2023/03/27 10:52:02;;;;;;;33.50;13.40;;;;;;;;;;5074109;28;20471;-73
2023/03/27 10:54:38;;;;;;;5.07;3.23;;;;;;;;;;5074371;28;20440;-73
2023/03/27 10:57:10;;;;;;;11.13;6.30;;;;;;;;;;5074376;28;20467;-73
2023/03/27 10:59:40;;;;;;;5.50;3.73;;;;;;;;;;5074005;28;20452;-73
2023/03/27 11:02:12;;;;;;;6.30;2.90;;;;;;;;;;5074258;28;20999;-73
2023/03/27 11:04:42;;;;;;;14.23;4.30;;;;;;;;;;5073874;28;20960;-73
2023/03/27 11:07:16;;;;;;;9.47;4.87;;;;;;;;;;5074504;28;20891;-74
2023/03/27 11:09:59;;;;;;;5.00;2.60;;;;;;;;;;5074325;28;20448;-75
2023/03/27 11:12:28;;;;;;;4.60;2.73;;;;;;;;;;5073708;28;20483;-75
2023/03/27 11:14:57;;;;;;;3.30;2.30;;;;;;;;;;5073541;28;20458;-75
2023/03/27 11:17:29;;;;;;;2.50;2.30;;;;;;;;;;5073761;28;20914;-74
2023/03/27 11:20:05;;;;;;;3.20;2.40;;;;;;;;;;5074001;28;20931;-74
2023/03/27 11:22:34;;;;;;;3.83;2.33;;;;;;;;;;5073563;28;20537;-75
2023/03/27 11:25:06;;;;;;;5.07;2.70;;;;;;;;;;5073682;28;20460;-76
2023/03/27 11:27:36;;;;;;;4.53;3.20;;;;;;;;;;5073562;28;20521;-75
2023/03/27 11:30:11;;;;;;;5.53;3.23;;;;;;;;;;5073685;28;20538;-74
2023/03/27 11:32:42;;;;;;;7.10;3.03;;;;;;;;;;5073537;28;20495;-74
2023/03/27 11:35:13;;;;;;;3.17;2.10;;;;;;;;;;5074093;28;20814;-74
2023/03/27 11:37:43;;;;;;;5.70;3.43;;;;;;;;;;5073822;28;20470;-75
2023/03/27 11:40:15;;;;;;;4.93;2.77;;;;;;;;;;5073260;28;20487;-73
2023/03/27 11:42:44;;;;;;;11.80;5.20;;;;;;;;;;5073503;28;20462;-73
2023/03/27 11:45:12;;;;;;;5.97;3.87;;;;;;;;;;5073378;28;20964;-74
2023/03/27 11:47:58;;;;;;;17.67;7.53;;;;;;;;;;5073324;28;20546;-73
2023/03/27 11:50:29;;;;;;;47.37;23.07;;;;;;;;;;5073547;28;20470;-74
2023/03/27 11:53:07;;;;;;;4.17;2.50;;;;;;;;;;5073192;28;21019;-74
2023/03/27 11:55:39;;;;;;;5.43;3.23;;;;;;;;;;5072966;28;20890;-74
2023/03/27 11:58:14;;;;;;;12.33;2.50;;;;;;;;;;5073180;28;20460;-73
2023/03/27 12:00:46;;;;;;;5.47;2.13;;;;;;;;;;5073256;28;21080;-73
2023/03/27 12:03:29;;;;;;;2.60;1.70;;;;;;;;;;5073034;28;20880;-74
2023/03/27 12:06:04;;;;;;;5.47;2.00;;;;;;;;;;5073699;28;20463;-74
2023/03/27 12:08:39;;;;;;;2.13;1.93;;;;;;;;;;5073399;28;20466;-74
2023/03/27 12:11:10;;;;;;;3.80;2.57;;;;;;;;;;5072706;28;20509;-74
2023/03/27 12:13:52;;;;;;;3.50;1.97;;;;;;;;;;5073060;28;20490;-73
2023/03/27 12:16:27;;;;;;;4.50;2.80;;;;;;;;;;5072795;28;20436;-74
2023/03/27 12:18:59;;;;;;;3.20;2.40;;;;;;;;;;5073261;28;20806;-74
2023/03/27 12:21:32;;;;;;;6.93;3.17;;;;;;;;;;5072783;28;20494;-73
2023/03/27 12:24:05;;;;;;;3.40;2.73;;;;;;;;;;5072825;28;20483;-73
2023/03/27 12:26:41;;;;;;;4.27;2.83;;;;;;;;;;5075123;28;20451;-73
2023/03/27 12:29:14;;;;;;;4.70;2.30;;;;;;;;;;5077003;28;20458;-73
2023/03/27 12:31:47;;;;;;;2.70;2.23;;;;;;;;;;5076699;28;20900;-73
2023/03/27 12:34:22;;;;;;;8.23;3.30;;;;;;;;;;5076577;28;20451;-73
2023/03/27 12:36:51;;;;;;;4.37;2.40;;;;;;;;;;5076719;28;20439;-74
2023/03/27 12:39:19;;;;;;;3.27;2.40;;;;;;;;;;5076450;28;20894;-74
2023/03/27 12:41:48;;;;;;;5.27;2.50;;;;;;;;;;5076367;28;20586;-73
2023/03/27 12:44:18;;;;;;;3.43;2.77;;;;;;;;;;5076262;28;20814;-74
2023/03/27 12:47:04;;;;;;;5.33;2.90;;;;;;;;;;5076606;28;20458;-74
2023/03/27 12:49:49;;;;;;;4.80;3.00;;;;;;;;;;5076391;28;20505;-74
2023/03/27 12:52:18;;;;;;;2.90;2.00;;;;;;;;;;5076173;28;20517;-74
2023/03/27 12:55:04;;;;;;;2.83;2.03;;;;;;;;;;5076443;28;20455;-72
2023/03/27 12:57:41;;;;;;;5.17;2.87;;;;;;;;;;5076503;28;20478;-73
2023/03/27 13:00:20;;;;;;;3.10;1.87;;;;;;;;;;5076268;28;20436;-73
2023/03/27 13:03:03;;;;;;;3.17;1.83;;;;;;;;;;5076415;28;21011;-73
2023/03/27 13:05:48;;;;;;;2.00;1.80;;;;;;;;;;5075692;28;20538;-73
2023/03/27 13:08:31;;;;;;;4.10;2.37;;;;;;;;;;5076003;28;20447;-72
2023/03/27 13:10:59;;;;;;;2.70;2.00;;;;;;;;;;5076261;28;20471;-73
2023/03/27 13:13:44;;;;;;;2.80;2.20;;;;;;;;;;5075919;28;20459;-73
2023/03/27 13:16:22;;;;;;;2.30;1.73;;;;;;;;;;5075901;28;20470;-73
2023/03/27 13:19:07;;;;;;;5.57;3.10;;;;;;;;;;5075938;28;20504;-73
2023/03/27 13:21:42;;;;;;;3.10;2.03;;;;;;;;;;5075712;28;20495;-73
2023/03/27 13:24:18;;;;;;;7.93;1.90;;;;;;;;;;5075845;28;20471;-73
2023/03/27 13:26:54;;;;;;;3.23;1.77;;;;;;;;;;5075951;28;20444;-73
2023/03/27 13:29:23;;;;;;;7.30;2.43;;;;;;;;;;5075751;28;20456;-72
2023/03/27 13:32:00;;;;;;;2.37;1.60;;;;;;;;;;5075516;28;20483;-72
2023/03/27 13:34:35;;;;;;;2.30;1.70;;;;;;;;;;5075748;28;20463;-72
2023/03/27 13:37:20;;;;;;;3.60;2.33;;;;;;;;;;5076143;28;20542;-72
2023/03/27 13:40:00;;;;;;;2.40;1.70;;;;;;;;;;5073604;28;20463;-72
2023/03/27 13:42:29;;;;;;;2.73;1.40;;;;;;;;;;5059154;28;20496;-73
2023/03/27 13:44:59;;;;;;;1.77;1.37;;;;;;;;;;5054507;28;20938;-72
2023/03/27 13:47:39;;;;;;;2.00;1.63;;;;;;;;;;5055204;28;20472;-74
2023/03/27 13:50:15;;;;;;;2.93;1.67;;;;;;;;;;5055098;28;20460;-74
2023/03/27 13:52:49;;;;;;;2.27;1.60;;;;;;;;;;5054799;28;20429;-71
2023/03/27 13:55:38;;;;;;;2.10;1.53;;;;;;;;;;5054417;28;20491;-74
2023/03/27 13:58:14;;;;;;;6.70;2.10;;;;;;;;;;5055423;28;20465;-75
2023/03/27 14:00:46;;;;;;;2.67;1.40;;;;;;;;;;5055228;28;20472;-74
2023/03/27 14:03:35;;;;;;;2.03;1.60;;;;;;;;;;5055026;28;20492;-76
2023/03/27 14:06:18;;;;;;;5.53;2.10;;;;;;;;;;5053999;28;21021;-74
2023/03/27 14:08:54;;;;;;;4.67;1.80;;;;;;;;;;5054170;28;20460;-74
2023/03/27 14:11:31;;;;;;;5.53;2.17;;;;;;;;;;5054140;28;20476;-73
2023/03/27 14:14:07;;;;;;;2.13;1.70;;;;;;;;;;5054235;28;20462;-74
2023/03/27 14:16:44;;;;;;;4.43;1.83;;;;;;;;;;5053865;28;20461;-73
2023/03/27 14:19:29;;;;;;;3.67;2.17;;;;;;;;;;5054214;28;20441;-75
2023/03/27 14:22:00;;;;;;;3.07;2.10;;;;;;;;;;5053924;28;20559;-72
2023/03/27 14:24:31;;;;;;;4.70;1.87;;;;;;;;;;5053511;28;20942;-72
2023/03/27 14:26:59;;;;;;;2.50;1.50;;;;;;;;;;5053715;28;20461;-73
2023/03/27 14:29:27;;;;;;;3.23;2.50;;;;;;;;;;5053729;28;20456;-73
2023/03/27 14:31:55;;;;;;;1.80;1.17;;;;;;;;;;5053364;28;20949;-73
2023/03/27 14:34:23;;;;;;;2.00;1.40;;;;;;;;;;5053569;28;20452;-72
2023/03/27 14:36:51;;;;;;;5.40;2.23;;;;;;;;;;5053507;28;20495;-73
2023/03/27 14:39:20;;;;;;;1.87;1.43;;;;;;;;;;5053385;28;20473;-73
2023/03/27 14:41:48;;;;;;;2.50;1.47;;;;;;;;;;5053096;28;20562;-73
2023/03/27 14:44:18;;;;;;;2.67;2.00;;;;;;;;;;5053412;28;20445;-73
2023/03/27 14:46:46;;;;;;;2.20;1.30;;;;;;;;;;5053344;28;20997;-73
2023/03/27 14:49:18;;;;;;;3.90;3.00;;;;;;;;;;5052906;28;20503;-72
2023/03/27 14:51:46;;;;;;;5.93;2.20;;;;;;;;;;5053678;28;20836;-73
2023/03/27 14:54:25;;;;;;;6.23;2.10;;;;;;;;;;5053055;28;20459;-73
2023/03/27 14:56:58;;;;;;;1.83;1.33;;;;;;;;;;5053347;28;20456;-73
2023/03/27 14:59:28;;;;;;;5.63;1.77;;;;;;;;;;5053297;28;20571;-73
2023/03/27 15:01:56;;;;;;;2.50;1.30;;;;;;;;;;5053057;28;20523;-73